createdAt,value
2022-12-16T00:01:58.420Z,-8.00
2022-12-16T00:04:44.842Z,-8.00
2022-12-16T00:07:31.472Z,-8.00
2022-12-16T00:10:19.167Z,-8.00
2022-12-16T00:13:09.063Z,-7.70
2022-12-16T00:15:57.154Z,-7.50
2022-12-16T00:18:43.915Z,-7.50
2022-12-16T00:21:30.284Z,-7.60
2022-12-16T00:24:16.740Z,-7.40
2022-12-16T00:27:04.490Z,-7.30
2022-12-16T00:29:50.623Z,-7.20
2022-12-16T00:32:37.243Z,-7.00
2022-12-16T00:35:23.361Z,-7.30
2022-12-16T00:38:10.302Z,-7.30
2022-12-16T00:40:57.083Z,-7.40
2022-12-16T00:43:45.062Z,-7.30
2022-12-16T00:46:31.500Z,-7.30
2022-12-16T00:49:17.697Z,-7.00
2022-12-16T00:52:04.623Z,-6.90
2022-12-16T00:54:50.997Z,-6.90
2022-12-16T00:57:38.019Z,-6.80
2022-12-16T01:00:26.972Z,-6.80
2022-12-16T01:03:16.820Z,-6.60
2022-12-16T01:06:12.831Z,-6.60
2022-12-16T01:08:59.416Z,-6.60
2022-12-16T01:11:45.610Z,-6.70
2022-12-16T01:14:32.223Z,-6.70
2022-12-16T01:17:19.834Z,-6.90
2022-12-16T01:20:07.181Z,-7.20
2022-12-16T01:22:53.744Z,-6.90
2022-12-16T01:25:41.414Z,-7.00
2022-12-16T01:28:27.727Z,-7.00
2022-12-16T01:31:16.622Z,-7.00
2022-12-16T01:34:04.516Z,-6.80
2022-12-16T01:36:50.991Z,-6.80
2022-12-16T01:39:39.005Z,-6.90
2022-12-16T01:42:28.721Z,-7.00
2022-12-16T01:45:32.926Z,-7.00
2022-12-16T01:48:35.947Z,-7.10
2022-12-16T01:51:31.401Z,-7.40
2022-12-16T01:54:21.684Z,-7.60
2022-12-16T01:57:11.854Z,-7.90
2022-12-16T01:59:58.921Z,-7.80
2022-12-16T02:02:46.332Z,-7.70
2022-12-16T02:05:34.463Z,-7.50
2022-12-16T02:08:22.690Z,-7.40
2022-12-16T02:11:22.129Z,-7.50
2022-12-16T02:14:29.919Z,-7.40
2022-12-16T02:17:21.419Z,-7.30
2022-12-16T02:20:48.407Z,-7.20
2022-12-16T02:24:17.235Z,-7.50
2022-12-16T02:27:52.012Z,-8.00
2022-12-16T02:30:58.165Z,-8.40
2022-12-16T02:34:01.131Z,-8.50
2022-12-16T02:37:07.428Z,-8.30
2022-12-16T02:40:00.335Z,-8.40
2022-12-16T02:42:51.138Z,-8.60
2022-12-16T02:45:39.703Z,-8.60
2022-12-16T02:48:27.296Z,-8.20
2022-12-16T02:51:13.696Z,-7.90
2022-12-16T02:54:00.192Z,-7.90
2022-12-16T02:57:03.849Z,-7.90
2022-12-16T03:00:00.284Z,-7.90
2022-12-16T03:02:53.675Z,-8.00
2022-12-16T03:05:48.180Z,-8.30
2022-12-16T03:08:38.368Z,-8.00
2022-12-16T03:11:27.442Z,-8.00
2022-12-16T03:14:17.362Z,-7.90
2022-12-16T03:17:04.856Z,-8.00
2022-12-16T03:19:58.328Z,-8.20
2022-12-16T03:22:49.283Z,-8.20
2022-12-16T03:25:39.919Z,-8.00
2022-12-16T03:28:37.519Z,-8.10
2022-12-16T03:31:31.718Z,-8.30
2022-12-16T03:34:26.516Z,-8.60
2022-12-16T03:37:14.653Z,-8.30
2022-12-16T03:40:06.191Z,-8.30
2022-12-16T03:42:53.658Z,-8.50
2022-12-16T03:45:42.301Z,-8.40
2022-12-16T03:48:28.636Z,-8.30
2022-12-16T03:51:15.854Z,-8.20
2022-12-16T03:54:02.187Z,-8.10
2022-12-16T03:56:49.898Z,-7.90
2022-12-16T03:59:36.485Z,-8.00
2022-12-16T04:02:23.214Z,-8.20
2022-12-16T04:05:10.399Z,-8.30
2022-12-16T04:08:01.835Z,-8.40
2022-12-16T04:11:09.289Z,-8.40
2022-12-16T04:14:14.631Z,-8.50
2022-12-16T04:17:18.410Z,-8.60
2022-12-16T04:20:23.608Z,-8.80
2022-12-16T04:23:29.696Z,-8.80
2022-12-16T04:26:16.836Z,-8.70
2022-12-16T04:29:04.708Z,-8.30
2022-12-16T04:31:51.832Z,-8.10
2022-12-16T04:34:37.400Z,-7.90
2022-12-16T04:37:41.244Z,-7.80
2022-12-16T04:40:45.152Z,-8.10
2022-12-16T04:43:49.063Z,-8.30
2022-12-16T04:46:54.158Z,-8.30
2022-12-16T04:49:58.175Z,-8.20
2022-12-16T04:53:02.361Z,-7.90
2022-12-16T04:56:06.271Z,-7.70
2022-12-16T04:59:10.110Z,-7.40
2022-12-16T05:02:15.244Z,-7.30
2022-12-16T05:05:19.215Z,-7.20
2022-12-16T05:08:23.672Z,-7.10
2022-12-16T05:11:27.520Z,-7.20
2022-12-16T05:14:31.585Z,-7.20
2022-12-16T05:17:37.084Z,-7.20
2022-12-16T05:20:41.051Z,-7.30
2022-12-16T05:23:44.868Z,-7.70
2022-12-16T05:26:49.303Z,-7.70
2022-12-16T05:29:53.308Z,-7.80
2022-12-16T05:32:58.596Z,-7.80
2022-12-16T05:36:02.476Z,-7.80
2022-12-16T05:39:11.920Z,-7.60
2022-12-16T05:42:16.519Z,-7.70
2022-12-16T05:45:20.345Z,-7.80
2022-12-16T05:48:26.144Z,-7.70
2022-12-16T05:51:31.029Z,-7.70
2022-12-16T05:54:34.853Z,-7.70
2022-12-16T05:57:38.823Z,-7.60
2022-12-16T06:00:42.912Z,-7.40
2022-12-16T06:03:48.371Z,-7.50
2022-12-16T06:06:52.444Z,-7.70
2022-12-16T06:09:57.139Z,-8.00
2022-12-16T06:13:04.698Z,-7.90
2022-12-16T06:16:09.410Z,-7.80
2022-12-16T06:19:14.696Z,-7.80
2022-12-16T06:22:18.692Z,-7.80
2022-12-16T06:25:32.024Z,-8.00
2022-12-16T06:28:36.137Z,-8.10
2022-12-16T06:31:40.088Z,-8.10
2022-12-16T06:34:45.127Z,-8.00
2022-12-16T06:37:49.007Z,-8.20
2022-12-16T06:41:01.746Z,-8.30
2022-12-16T06:44:05.832Z,-8.40
2022-12-16T06:47:09.727Z,-8.40
2022-12-16T06:50:15.230Z,-8.40
2022-12-16T06:53:19.117Z,-8.40
2022-12-16T06:56:23.620Z,-8.50
2022-12-16T06:59:27.720Z,-8.50
2022-12-16T07:02:31.712Z,-8.50
2022-12-16T07:05:37.156Z,-8.50
2022-12-16T07:08:41.143Z,-8.60
2022-12-16T07:11:45.040Z,-8.50
2022-12-16T07:14:48.895Z,-8.30
2022-12-16T07:17:52.787Z,-8.30
2022-12-16T07:20:58.167Z,-8.30
2022-12-16T07:24:10.431Z,-8.30
2022-12-16T07:27:14.623Z,-8.30
2022-12-16T07:30:18.517Z,-8.40
2022-12-16T07:33:22.513Z,-8.20
2022-12-16T07:36:28.039Z,-8.10
2022-12-16T07:39:31.887Z,-7.70
2022-12-16T07:42:35.914Z,-7.50
2022-12-16T07:45:44.899Z,-7.30
2022-12-16T07:48:49.256Z,-7.30
2022-12-16T07:51:54.647Z,-7.10
2022-12-16T07:54:59.667Z,-7.30
2022-12-16T07:58:08.529Z,-7.30
2022-12-16T08:01:12.487Z,-7.30
2022-12-16T08:04:16.879Z,-7.50
2022-12-16T08:07:22.644Z,-7.20
2022-12-16T08:10:27.647Z,-7.20
2022-12-16T08:13:31.701Z,-7.20
2022-12-16T08:16:35.981Z,-7.10
2022-12-16T08:19:39.694Z,-7.10
2022-12-16T08:22:44.861Z,-7.10
2022-12-16T08:25:48.995Z,-7.00
2022-12-16T08:28:53.716Z,-7.20
2022-12-16T08:31:57.579Z,-7.10
2022-12-16T08:35:01.514Z,-7.00
2022-12-16T08:38:12.216Z,-6.90
2022-12-16T08:41:17.764Z,-6.90
2022-12-16T08:44:21.571Z,-6.80
2022-12-16T08:47:22.064Z,-6.70
2022-12-16T08:50:26.522Z,-6.20
2022-12-16T08:53:32.194Z,-5.90
2022-12-16T08:56:36.173Z,-5.50
2022-12-16T08:59:39.976Z,-5.10
2022-12-16T09:02:43.968Z,-5.00
2022-12-16T09:05:47.594Z,-4.90
2022-12-16T09:08:52.493Z,-4.90
2022-12-16T09:11:56.749Z,-4.80
2022-12-16T09:15:00.828Z,-4.60
2022-12-16T09:18:04.547Z,-4.30
2022-12-16T09:21:10.213Z,-4.20
2022-12-16T09:24:15.457Z,-4.00
2022-12-16T09:27:19.451Z,-3.90
2022-12-16T09:30:24.250Z,-3.70
2022-12-16T09:33:27.503Z,-3.60
2022-12-16T09:36:31.756Z,-3.60
2022-12-16T09:39:37.099Z,-3.40
2022-12-16T09:42:48.839Z,-3.30
2022-12-16T09:46:01.940Z,-3.30
2022-12-16T09:49:13.996Z,-3.10
2022-12-16T09:52:20.551Z,-3.10
2022-12-16T09:55:44.091Z,-2.90
2022-12-16T09:58:53.435Z,-2.80
2022-12-16T10:01:59.539Z,-2.60
2022-12-16T10:05:02.099Z,-2.40
2022-12-16T10:08:18.656Z,-2.30
2022-12-16T10:11:30.206Z,-2.20
2022-12-16T10:14:40.664Z,-2.00
2022-12-16T10:17:45.119Z,-1.80
2022-12-16T10:20:55.119Z,-1.80
2022-12-16T10:24:06.383Z,-1.70
2022-12-16T10:27:15.926Z,-1.70
2022-12-16T10:30:32.788Z,-1.70
2022-12-16T10:33:38.962Z,-1.70
2022-12-16T10:36:44.468Z,-1.80
2022-12-16T10:39:52.168Z,-1.70
2022-12-16T10:43:06.691Z,-1.80
2022-12-16T10:46:14.422Z,-1.80
2022-12-16T10:49:18.300Z,-1.70
2022-12-16T10:52:23.108Z,-1.80
2022-12-16T10:55:41.031Z,-1.70
2022-12-16T10:58:54.679Z,-1.80
2022-12-16T11:02:07.606Z,-1.70
2022-12-16T11:05:12.626Z,-1.70
2022-12-16T11:08:16.416Z,-1.80
2022-12-16T11:11:32.440Z,-1.80
2022-12-16T11:14:50.376Z,-1.60
2022-12-16T11:18:20.884Z,-1.60
2022-12-16T11:21:32.274Z,-1.50
2022-12-16T11:24:37.498Z,-1.60
2022-12-16T11:27:43.515Z,-1.60
2022-12-16T11:30:49.159Z,-1.70
2022-12-16T11:34:04.749Z,-1.70
2022-12-16T11:37:11.151Z,-1.90
2022-12-16T11:40:15.783Z,-1.90
2022-12-16T11:43:22.252Z,-1.90
2022-12-16T11:46:38.704Z,-2.10
2022-12-16T11:49:48.814Z,-2.10
2022-12-16T11:52:53.215Z,-2.10
2022-12-16T11:56:07.740Z,-2.30
2022-12-16T11:59:22.066Z,-2.20
2022-12-16T12:02:34.429Z,-2.20
2022-12-16T12:05:46.279Z,-2.20
2022-12-16T12:08:57.485Z,-2.30
2022-12-16T12:12:08.099Z,-2.40
2022-12-16T12:15:20.436Z,-2.20
2022-12-16T12:18:35.206Z,-2.10
2022-12-16T12:21:43.441Z,-2.00
2022-12-16T12:24:57.952Z,-1.90
2022-12-16T12:28:12.387Z,-1.80
2022-12-16T12:31:24.709Z,-1.90
2022-12-16T12:34:41.220Z,-1.90
2022-12-16T12:37:49.226Z,-1.80
2022-12-16T12:41:04.458Z,-1.80
2022-12-16T12:44:20.075Z,-1.90
2022-12-16T12:47:32.996Z,-2.00
2022-12-16T12:50:48.446Z,-2.10
2022-12-16T12:54:02.638Z,-2.20
2022-12-16T12:57:21.265Z,-2.20
2022-12-16T13:00:34.415Z,-2.20
2022-12-16T13:03:46.480Z,-2.30
2022-12-16T13:06:54.555Z,-2.30
2022-12-16T13:09:59.778Z,-2.40
2022-12-16T13:13:39.844Z,-2.40
2022-12-16T13:17:18.906Z,-2.30
2022-12-16T13:20:54.393Z,-2.40
2022-12-16T13:24:02.951Z,-2.40
2022-12-16T13:27:20.056Z,-2.50
2022-12-16T13:30:41.193Z,-2.50
2022-12-16T13:33:47.827Z,-2.40
2022-12-16T13:36:53.884Z,-2.30
2022-12-16T13:40:00.868Z,-2.30
2022-12-16T13:43:13.418Z,-2.10
2022-12-16T13:46:43.749Z,-2.00
2022-12-16T13:50:05.993Z,-2.00
2022-12-16T13:53:17.018Z,-1.90
2022-12-16T13:56:25.031Z,-1.90
2022-12-16T13:59:35.501Z,-1.80
2022-12-16T14:02:49.651Z,-1.80
2022-12-16T14:06:00.553Z,-1.80
2022-12-16T14:09:16.642Z,-1.70
2022-12-16T14:12:39.154Z,-1.70
2022-12-16T14:15:47.521Z,-1.80
2022-12-16T14:19:02.399Z,-1.80
2022-12-16T14:22:10.783Z,-1.80
2022-12-16T14:25:27.814Z,-1.80
2022-12-16T14:28:41.700Z,-1.80
2022-12-16T14:31:52.858Z,-1.80
2022-12-16T14:34:57.331Z,-1.80
2022-12-16T14:38:01.270Z,-1.80
2022-12-16T14:41:10.285Z,-1.90
2022-12-16T14:44:15.954Z,-1.80
2022-12-16T14:47:19.796Z,-1.70
2022-12-16T14:50:38.182Z,-1.80
2022-12-16T14:53:49.293Z,-1.70
2022-12-16T14:56:53.339Z,-1.90
2022-12-16T14:59:58.695Z,-2.10
2022-12-16T15:03:11.152Z,-2.20
2022-12-16T15:06:16.169Z,-2.20
2022-12-16T15:09:22.982Z,-2.20
2022-12-16T15:12:34.171Z,-2.20
2022-12-16T15:15:50.783Z,-2.20
2022-12-16T15:18:58.601Z,-2.20
2022-12-16T15:22:02.899Z,-2.40
2022-12-16T15:25:06.975Z,-2.20
2022-12-16T15:28:16.838Z,-2.20
2022-12-16T15:31:31.925Z,-2.30
2022-12-16T15:34:43.885Z,-2.30
2022-12-16T15:37:56.993Z,-2.20
2022-12-16T15:41:09.793Z,-2.40
2022-12-16T15:44:14.192Z,-2.30
2022-12-16T15:47:19.983Z,-2.40
2022-12-16T15:50:25.289Z,-2.30
2022-12-16T15:53:52.244Z,-2.40
2022-12-16T15:57:02.970Z,-2.30
2022-12-16T16:00:17.857Z,-2.40
2022-12-16T16:03:24.447Z,-2.40
2022-12-16T16:06:34.856Z,-2.40
2022-12-16T16:09:41.705Z,-2.50
2022-12-16T16:12:59.999Z,-2.50
2022-12-16T16:16:04.437Z,-2.40
2022-12-16T16:19:09.788Z,-2.50
2022-12-16T16:22:13.777Z,-2.50
2022-12-16T16:25:18.365Z,-2.60
2022-12-16T16:28:22.776Z,-2.50
2022-12-16T16:31:28.706Z,-2.40
2022-12-16T16:34:34.346Z,-2.30
2022-12-16T16:37:39.942Z,-2.50
2022-12-16T16:40:50.298Z,-2.30
2022-12-16T16:43:54.128Z,-2.30
2022-12-16T16:47:00.205Z,-2.20
2022-12-16T16:50:06.177Z,-2.30
2022-12-16T16:53:10.127Z,-2.30
2022-12-16T16:56:19.876Z,-2.30
2022-12-16T16:59:24.570Z,-2.30
2022-12-16T17:02:40.529Z,-2.30
2022-12-16T17:05:46.181Z,-2.20
2022-12-16T17:08:50.071Z,-2.20
2022-12-16T17:11:54.054Z,-2.40
2022-12-16T17:14:57.851Z,-2.30
2022-12-16T17:18:03.992Z,-2.40
2022-12-16T17:21:09.469Z,-2.30
2022-12-16T17:24:13.803Z,-2.30
2022-12-16T17:27:26.391Z,-2.30
2022-12-16T17:30:34.944Z,-2.40
2022-12-16T17:33:38.696Z,-2.40
2022-12-16T17:36:44.456Z,-2.50
2022-12-16T17:39:48.505Z,-2.50
2022-12-16T17:42:52.220Z,-2.50
2022-12-16T17:45:56.121Z,-2.40
2022-12-16T17:48:59.979Z,-2.40
2022-12-16T17:52:05.330Z,-2.30
2022-12-16T17:55:09.311Z,-2.20
2022-12-16T17:58:13.275Z,-2.20
2022-12-16T18:01:20.051Z,-2.20
2022-12-16T18:04:24.470Z,-2.20
2022-12-16T18:07:29.610Z,-2.30
2022-12-16T18:10:34.043Z,-2.40
2022-12-16T18:13:38.032Z,-2.50
2022-12-16T18:16:42.850Z,-2.50
2022-12-16T18:19:46.756Z,-2.30
2022-12-16T18:22:52.303Z,-2.10
2022-12-16T18:25:56.333Z,-2.20
2022-12-16T18:29:00.168Z,-2.10
2022-12-16T18:32:08.525Z,-2.10
2022-12-16T18:35:12.659Z,-2.00
2022-12-16T18:41:33.379Z,-1.90
2022-12-16T18:44:37.444Z,-1.80
2022-12-16T18:47:41.451Z,-1.70
2022-12-16T18:50:45.433Z,-1.60
2022-12-16T18:53:50.598Z,-1.60
2022-12-16T18:56:55.627Z,-1.60
2022-12-16T19:00:10.824Z,-1.70
2022-12-16T19:03:15.349Z,-1.80
2022-12-16T19:06:19.156Z,-1.70
2022-12-16T19:09:24.626Z,-1.70
2022-12-16T19:12:28.690Z,-1.60
2022-12-16T19:15:35.460Z,-1.50
2022-12-16T19:18:41.457Z,-1.50
2022-12-16T19:21:51.353Z,-1.40
2022-12-16T19:24:57.432Z,-1.40
2022-12-16T19:28:09.728Z,-1.40
2022-12-16T19:31:14.071Z,-1.40
2022-12-16T19:34:23.440Z,-1.40
2022-12-16T19:37:27.758Z,-1.30
2022-12-16T19:40:33.039Z,-1.30
2022-12-16T19:43:39.343Z,-1.40
2022-12-16T19:46:43.688Z,-1.20
2022-12-16T19:49:48.179Z,-1.20
2022-12-16T19:52:52.277Z,-1.30
2022-12-16T19:56:03.513Z,-1.30
2022-12-16T19:59:07.902Z,-1.20
2022-12-16T20:02:12.687Z,-1.30
2022-12-16T20:05:16.988Z,-1.40
2022-12-16T20:08:21.032Z,-1.30
2022-12-16T20:11:26.642Z,-1.50
2022-12-16T20:14:30.528Z,-1.40
2022-12-16T20:17:34.466Z,-1.30
2022-12-16T20:20:38.271Z,-1.20
2022-12-16T20:23:48.127Z,-1.20
2022-12-16T20:27:08.448Z,-1.10
2022-12-16T20:30:12.589Z,-1.10
2022-12-16T20:33:16.899Z,-1.10
2022-12-16T20:36:28.595Z,-1.00
2022-12-16T20:39:32.822Z,-1.10
2022-12-16T20:42:38.119Z,-1.10
2022-12-16T20:45:42.208Z,-1.10
2022-12-16T20:48:46.253Z,-1.10
2022-12-16T20:51:50.291Z,-1.00
2022-12-16T20:54:56.184Z,-1.10
2022-12-16T20:58:01.385Z,-1.10
2022-12-16T21:01:10.356Z,-0.90
2022-12-16T21:04:14.084Z,-1.00
2022-12-16T21:07:18.020Z,-1.00
2022-12-16T21:10:27.645Z,-0.90
2022-12-16T21:13:35.050Z,-1.00
2022-12-16T21:16:39.132Z,-0.90
2022-12-16T21:19:43.529Z,-1.00
2022-12-16T21:22:47.312Z,-1.10
2022-12-16T21:25:50.553Z,-1.00
2022-12-16T21:28:57.489Z,-1.10
2022-12-16T21:32:01.208Z,-1.20
2022-12-16T21:35:05.141Z,-1.20
2022-12-16T21:38:10.035Z,-1.40
2022-12-16T21:41:14.524Z,-1.40
2022-12-16T21:44:19.916Z,-1.10
2022-12-16T21:47:23.856Z,-1.00
2022-12-16T21:50:28.226Z,-1.00
2022-12-16T21:53:32.067Z,-1.00
2022-12-16T21:56:36.182Z,-1.00
2022-12-16T21:59:41.741Z,-1.00
2022-12-16T22:02:45.820Z,-1.10
2022-12-16T22:05:49.752Z,-1.00
2022-12-16T22:08:53.640Z,-0.90
2022-12-16T22:12:00.217Z,-0.90
2022-12-16T22:15:05.661Z,-0.90
2022-12-16T22:18:10.559Z,-1.00
2022-12-16T22:21:18.414Z,-1.00
2022-12-16T22:24:22.337Z,-1.00
2022-12-16T22:27:26.279Z,-0.90
2022-12-16T22:30:32.145Z,-0.80
2022-12-16T22:33:35.819Z,-0.90
2022-12-16T22:36:39.642Z,-0.90
2022-12-16T22:39:45.107Z,-0.90
2022-12-16T22:42:49.010Z,-0.80
2022-12-16T22:45:56.898Z,-0.80
2022-12-16T22:49:01.024Z,-0.80
2022-12-16T22:52:04.999Z,-0.80
2022-12-16T22:55:09.701Z,-0.80
2022-12-16T22:58:13.255Z,-0.80
2022-12-16T23:01:18.377Z,-0.70
2022-12-16T23:04:22.375Z,-0.80
2022-12-16T23:07:27.228Z,-0.90
2022-12-16T23:10:31.236Z,-0.70
2022-12-16T23:13:35.018Z,-0.70
2022-12-16T23:16:40.277Z,-0.70
2022-12-16T23:19:44.151Z,-0.80
2022-12-16T23:22:48.137Z,-0.80
2022-12-16T23:25:52.107Z,-0.80
2022-12-16T23:28:56.545Z,-0.80
2022-12-16T23:32:01.531Z,-0.70
2022-12-16T23:35:05.519Z,-0.60
2022-12-16T23:38:09.571Z,-0.70
2022-12-16T23:41:14.752Z,-0.70
2022-12-16T23:44:18.616Z,-0.60
2022-12-16T23:47:24.091Z,-0.70
2022-12-16T23:50:28.099Z,-0.70
2022-12-16T23:53:46.519Z,-0.70
2022-12-16T23:56:50.544Z,-0.60
2022-12-16T23:59:51.096Z,-0.70
